sensor_id;sensor_type;location;lat;lon;timestamp;pressure;altitude;pressure_sealevel;temperature;humidity
66887;BME280;53798;51.680;5.976;2022-09-28T00:01:23;99492.22;;;8.43;96.59
66887;BME280;53798;51.680;5.976;2022-09-28T00:03:54;99492.22;;;8.43;96.45
66887;BME280;53798;51.680;5.976;2022-09-28T00:06:28;99492.31;;;8.41;96.59
66887;BME280;53798;51.680;5.976;2022-09-28T00:08:56;99494.94;;;8.41;96.77
66887;BME280;53798;51.680;5.976;2022-09-28T00:11:24;99486.13;;;8.42;96.70
66887;BME280;53798;51.680;5.976;2022-09-28T00:13:57;99494.00;;;8.42;96.65
66887;BME280;53798;51.680;5.976;2022-09-28T00:16:31;99491.50;;;8.39;96.21
66887;BME280;53798;51.680;5.976;2022-09-28T00:19:02;99486.25;;;8.39;96.42
66887;BME280;53798;51.680;5.976;2022-09-28T00:21:32;99487.09;;;8.39;96.60
66887;BME280;53798;51.680;5.976;2022-09-28T00:24:03;99480.22;;;8.37;95.82
66887;BME280;53798;51.680;5.976;2022-09-28T00:26:45;99480.38;;;8.34;95.99
66887;BME280;53798;51.680;5.976;2022-09-28T00:29:22;99480.41;;;8.32;95.89
66887;BME280;53798;51.680;5.976;2022-09-28T00:32:03;99481.31;;;8.31;96.15
66887;BME280;53798;51.680;5.976;2022-09-28T00:34:34;99480.47;;;8.31;96.20
66887;BME280;53798;51.680;5.976;2022-09-28T00:37:04;99491.00;;;8.31;96.39
66887;BME280;53798;51.680;5.976;2022-09-28T00:39:32;99483.09;;;8.31;96.22
66887;BME280;53798;51.680;5.976;2022-09-28T00:42:02;99475.34;;;8.28;96.02
66887;BME280;53798;51.680;5.976;2022-09-28T00:44:43;99485.06;;;8.26;96.13
66887;BME280;53798;51.680;5.976;2022-09-28T00:50:19;99481.91;;;8.17;95.92
66887;BME280;53798;51.680;5.976;2022-09-28T00:52:54;99480.16;;;8.18;96.09
66887;BME280;53798;51.680;5.976;2022-09-28T00:55:55;99474.91;;;8.18;96.08
66887;BME280;53798;51.680;5.976;2022-09-28T00:58:29;99467.06;;;8.16;96.12
66887;BME280;53798;51.680;5.976;2022-09-28T01:00:59;99470.69;;;8.14;95.92
66887;BME280;53798;51.680;5.976;2022-09-28T01:03:27;99468.06;;;8.14;96.21
66887;BME280;53798;51.680;5.976;2022-09-28T01:05:57;99468.97;;;8.13;96.25
66887;BME280;53798;51.680;5.976;2022-09-28T01:08:29;99466.47;;;8.09;96.05
66887;BME280;53798;51.680;5.976;2022-09-28T01:10:58;99461.38;;;8.06;96.00
66887;BME280;53798;51.680;5.976;2022-09-28T01:13:27;99466.75;;;8.03;95.76
66887;BME280;53798;51.680;5.976;2022-09-28T01:16:18;99467.72;;;8.01;95.78
66887;BME280;53798;51.680;5.976;2022-09-28T01:31:11;99456.50;;;7.97;96.48
66887;BME280;53798;51.680;5.976;2022-09-28T01:33:44;99466.03;;;8.00;96.25
66887;BME280;53798;51.680;5.976;2022-09-28T01:39:17;99454.09;;;7.92;96.31
66887;BME280;53798;51.680;5.976;2022-09-28T01:41:51;99459.38;;;7.91;95.87
66887;BME280;53798;51.680;5.976;2022-09-28T01:44:25;99453.31;;;7.89;96.15
66887;BME280;53798;51.680;5.976;2022-09-28T01:46:58;99457.66;;;7.90;95.89
66887;BME280;53798;51.680;5.976;2022-09-28T01:49:36;99449.06;;;7.86;95.99
66887;BME280;53798;51.680;5.976;2022-09-28T01:52:32;99459.72;;;7.83;96.05
66887;BME280;53798;51.680;5.976;2022-09-28T01:55:24;99462.38;;;7.82;95.95
66887;BME280;53798;51.680;5.976;2022-09-28T02:00:40;99446.63;;;7.82;96.15
66887;BME280;53798;51.680;5.976;2022-09-28T02:03:23;99458.03;;;7.81;96.33
66887;BME280;53798;51.680;5.976;2022-09-28T02:06:01;99450.16;;;7.81;96.58
66887;BME280;53798;51.680;5.976;2022-09-28T02:08:48;99450.97;;;7.83;96.76
66887;BME280;53798;51.680;5.976;2022-09-28T02:11:24;99448.22;;;7.86;97.00
66887;BME280;53798;51.680;5.976;2022-09-28T02:13:55;99445.47;;;7.89;97.13
66887;BME280;53798;51.680;5.976;2022-09-28T02:16:33;99453.41;;;7.87;96.77
66887;BME280;53798;51.680;5.976;2022-09-28T02:19:10;99455.94;;;7.89;97.03
66887;BME280;53798;51.680;5.976;2022-09-28T02:21:55;99449.06;;;7.86;96.64
66887;BME280;53798;51.680;5.976;2022-09-28T02:24:37;99445.19;;;7.74;96.51
66887;BME280;53798;51.680;5.976;2022-09-28T02:27:33;99450.75;;;7.67;96.20
66887;BME280;53798;51.680;5.976;2022-09-28T02:30:07;99450.13;;;7.60;96.27
66887;BME280;53798;51.680;5.976;2022-09-28T02:32:38;99449.59;;;7.52;96.22
66887;BME280;53798;51.680;5.976;2022-09-28T02:35:11;99451.41;;;7.50;96.53
66887;BME280;53798;51.680;5.976;2022-09-28T02:37:40;99456.84;;;7.45;96.59
66887;BME280;53798;51.680;5.976;2022-09-28T02:40:19;99459.63;;;7.40;96.46
66887;BME280;53798;51.680;5.976;2022-09-28T02:43:14;99458.00;;;7.38;96.92
66887;BME280;53798;51.680;5.976;2022-09-28T02:46:23;99456.38;;;7.35;96.72
66887;BME280;53798;51.680;5.976;2022-09-28T02:49:17;99460.88;;;7.32;97.06
66887;BME280;53798;51.680;5.976;2022-09-28T02:52:12;99462.63;;;7.31;97.08
66887;BME280;53798;51.680;5.976;2022-09-28T03:06:29;99457.53;;;7.50;98.17
66887;BME280;53798;51.680;5.976;2022-09-28T03:09:20;99461.59;;;7.57;98.05
66887;BME280;53798;51.680;5.976;2022-09-28T03:11:58;99468.44;;;7.61;98.03
66887;BME280;53798;51.680;5.976;2022-09-28T03:14:29;99469.16;;;7.65;97.66
66887;BME280;53798;51.680;5.976;2022-09-28T03:16:56;99465.63;;;7.66;97.99
66887;BME280;53798;51.680;5.976;2022-09-28T03:19:27;99467.19;;;7.70;97.94
66887;BME280;53798;51.680;5.976;2022-09-28T03:21:59;99460.06;;;7.74;97.88
66887;BME280;53798;51.680;5.976;2022-09-28T03:24:27;99455.59;;;7.76;97.63
66887;BME280;53798;51.680;5.976;2022-09-28T03:26:54;99458.13;;;7.79;97.37
66887;BME280;53798;51.680;5.976;2022-09-28T03:29:21;99458.13;;;7.79;97.31
66887;BME280;53798;51.680;5.976;2022-09-28T03:31:56;99460.66;;;7.81;97.13
66887;BME280;53798;51.680;5.976;2022-09-28T03:34:23;99464.97;;;7.83;96.98
66887;BME280;53798;51.680;5.976;2022-09-28T03:36:50;99463.25;;;7.82;97.12
66887;BME280;53798;51.680;5.976;2022-09-28T03:39:18;99454.38;;;7.85;96.87
66887;BME280;53798;51.680;5.976;2022-09-28T03:41:45;99463.97;;;7.86;96.73
66887;BME280;53798;51.680;5.976;2022-09-28T03:44:12;99464.88;;;7.85;96.51
66887;BME280;53798;51.680;5.976;2022-09-28T03:46:40;99462.25;;;7.85;96.42
66887;BME280;53798;51.680;5.976;2022-09-28T03:49:08;99463.97;;;7.86;96.58
66887;BME280;53798;51.680;5.976;2022-09-28T03:51:35;99462.97;;;7.88;96.64
66887;BME280;53798;51.680;5.976;2022-09-28T03:54:03;99457.63;;;7.91;96.94
66887;BME280;53798;51.680;5.976;2022-09-28T03:56:31;99463.59;;;7.95;97.01
66887;BME280;53798;51.680;5.976;2022-09-28T03:58:58;99467.94;;;7.96;96.99
66887;BME280;53798;51.680;5.976;2022-09-28T04:01:25;99465.22;;;7.98;96.92
66887;BME280;53798;51.680;5.976;2022-09-28T04:03:53;99466.03;;;8.00;97.47
66887;BME280;53798;51.680;5.976;2022-09-28T04:06:23;99460.69;;;8.01;97.34
66887;BME280;53798;51.680;5.976;2022-09-28T04:08:51;99463.28;;;8.03;96.84
66887;BME280;53798;51.680;5.976;2022-09-28T04:11:19;99459.66;;;8.05;97.06
66887;BME280;53798;51.680;5.976;2022-09-28T04:13:49;99456.97;;;8.07;97.15
66887;BME280;53798;51.680;5.976;2022-09-28T04:16:16;99459.47;;;8.10;97.30
66887;BME280;53798;51.680;5.976;2022-09-28T04:18:53;99462.03;;;8.12;97.06
66887;BME280;53798;51.680;5.976;2022-09-28T04:21:44;99455.00;;;8.12;97.00
66887;BME280;53798;51.680;5.976;2022-09-28T04:24:13;99459.41;;;8.12;97.00
66887;BME280;53798;51.680;5.976;2022-09-28T04:26:40;99455.06;;;8.11;96.57
66887;BME280;53798;51.680;5.976;2022-09-28T04:29:09;99461.31;;;8.08;96.59
66887;BME280;53798;51.680;5.976;2022-09-28T04:31:50;99461.38;;;8.06;96.42
66887;BME280;53798;51.680;5.976;2022-09-28T04:34:22;99457.88;;;8.06;96.42
66887;BME280;53798;51.680;5.976;2022-09-28T04:36:49;99458.75;;;8.06;96.56
66887;BME280;53798;51.680;5.976;2022-09-28T04:39:20;99458.78;;;8.05;96.54
66887;BME280;53798;51.680;5.976;2022-09-28T04:41:50;99458.78;;;8.05;96.38
66887;BME280;53798;51.680;5.976;2022-09-28T04:44:18;99457.88;;;8.06;96.41
66887;BME280;53798;51.680;5.976;2022-09-28T04:46:46;99455.22;;;8.07;96.64
66887;BME280;53798;51.680;5.976;2022-09-28T04:49:33;99453.22;;;8.13;96.83
66887;BME280;53798;51.680;5.976;2022-09-28T04:52:07;99461.63;;;8.21;96.86
66887;BME280;53798;51.680;5.976;2022-09-28T04:54:35;99464.25;;;8.21;96.01
66887;BME280;53798;51.680;5.976;2022-09-28T04:57:02;99455.78;;;8.14;95.33
66887;BME280;53798;51.680;5.976;2022-09-28T04:59:31;99467.34;;;8.10;95.37
66887;BME280;53798;51.680;5.976;2022-09-28T05:01:59;99466.66;;;8.05;95.39
66887;BME280;53798;51.680;5.976;2022-09-28T05:04:45;99462.59;;;7.98;95.42
66887;BME280;53798;51.680;5.976;2022-09-28T05:07:36;99461.97;;;7.92;95.38
66887;BME280;53798;51.680;5.976;2022-09-28T05:10:05;99458.75;;;7.84;95.38
66887;BME280;53798;51.680;5.976;2022-09-28T05:12:33;99467.81;;;7.77;94.94
66887;BME280;53798;51.680;5.976;2022-09-28T05:15:00;99470.81;;;7.68;95.09
66887;BME280;53798;51.680;5.976;2022-09-28T05:17:27;99473.69;;;7.61;95.38
66887;BME280;53798;51.680;5.976;2022-09-28T05:20:08;99470.44;;;7.55;95.52
66887;BME280;53798;51.680;5.976;2022-09-28T05:22:36;99474.09;;;7.51;95.53
66887;BME280;53798;51.680;5.976;2022-09-28T05:25:07;99469.03;;;7.46;95.71
66887;BME280;53798;51.680;5.976;2022-09-28T05:27:46;99480.69;;;7.39;95.88
66887;BME280;53798;51.680;5.976;2022-09-28T05:30:34;99487.81;;;7.35;96.01
66887;BME280;53798;51.680;5.976;2022-09-28T05:33:26;99482.59;;;7.35;96.36
66887;BME280;53798;51.680;5.976;2022-09-28T05:36:10;99479.06;;;7.36;96.52
66887;BME280;53798;51.680;5.976;2022-09-28T05:38:37;99479.72;;;7.41;96.99
66887;BME280;53798;51.680;5.976;2022-09-28T05:41:04;99481.34;;;7.44;97.01
66887;BME280;53798;51.680;5.976;2022-09-28T05:43:33;99483.94;;;7.45;96.82
66887;BME280;53798;51.680;5.976;2022-09-28T05:46:04;99479.50;;;7.48;96.93
66887;BME280;53798;51.680;5.976;2022-09-28T05:48:37;99483.06;;;7.45;96.57
66887;BME280;53798;51.680;5.976;2022-09-28T05:51:05;99481.41;;;7.42;96.64
66887;BME280;53798;51.680;5.976;2022-09-28T05:53:32;99479.78;;;7.40;96.50
66887;BME280;53798;51.680;5.976;2022-09-28T05:56:00;99484.13;;;7.41;96.47
66887;BME280;53798;51.680;5.976;2022-09-28T05:58:30;99485.03;;;7.40;96.43
66887;BME280;53798;51.680;5.976;2022-09-28T06:00:59;99486.00;;;7.37;96.51
66887;BME280;53798;51.680;5.976;2022-09-28T06:03:27;99493.00;;;7.37;96.44
66887;BME280;53798;51.680;5.976;2022-09-28T06:05:54;99494.81;;;7.35;96.29
66887;BME280;53798;51.680;5.976;2022-09-28T06:08:22;99496.59;;;7.34;96.30
66887;BME280;53798;51.680;5.976;2022-09-28T06:11:00;99502.75;;;7.33;96.35
66887;BME280;53798;51.680;5.976;2022-09-28T06:13:28;99505.25;;;7.36;96.24
66887;BME280;53798;51.680;5.976;2022-09-28T06:15:55;99511.16;;;7.41;96.29
66887;BME280;53798;51.680;5.976;2022-09-28T06:18:22;99512.88;;;7.42;96.11
66887;BME280;53798;51.680;5.976;2022-09-28T06:21:17;99519.94;;;7.40;96.16
66887;BME280;53798;51.680;5.976;2022-09-28T06:23:45;99514.84;;;7.37;96.35
66887;BME280;53798;51.680;5.976;2022-09-28T06:26:16;99521.91;;;7.35;96.28
66887;BME280;53798;51.680;5.976;2022-09-28T06:28:44;99527.16;;;7.35;96.39
66887;BME280;53798;51.680;5.976;2022-09-28T06:31:11;99523.72;;;7.33;96.34
66887;BME280;53798;51.680;5.976;2022-09-28T06:33:44;99525.47;;;7.33;96.52
66887;BME280;53798;51.680;5.976;2022-09-28T06:36:11;99527.97;;;7.37;96.46
66887;BME280;53798;51.680;5.976;2022-09-28T06:38:39;99529.47;;;7.43;96.25
66887;BME280;53798;51.680;5.976;2022-09-28T06:41:06;99537.94;;;7.50;96.37
66887;BME280;53798;51.680;5.976;2022-09-28T06:43:33;99534.31;;;7.54;96.30
66887;BME280;53798;51.680;5.976;2022-09-28T06:46:19;99535.72;;;7.63;96.32
66887;BME280;53798;51.680;5.976;2022-09-28T06:48:49;99531.84;;;7.73;96.11
66887;BME280;53798;51.680;5.976;2022-09-28T06:51:25;99533.28;;;7.80;95.93
66887;BME280;53798;51.680;5.976;2022-09-28T06:53:54;99535.53;;;7.89;96.08
66887;BME280;53798;51.680;5.976;2022-09-28T06:56:35;99533.34;;;8.01;96.13
66887;BME280;53798;51.680;5.976;2022-09-28T06:59:03;99539.84;;;8.13;95.61
66887;BME280;53798;51.680;5.976;2022-09-28T07:01:32;99537.53;;;8.27;95.73
66887;BME280;53798;51.680;5.976;2022-09-28T07:04:25;99535.03;;;8.45;95.61
66887;BME280;53798;51.680;5.976;2022-09-28T07:06:52;99537.31;;;8.54;95.62
66887;BME280;53798;51.680;5.976;2022-09-28T07:09:38;99537.91;;;8.61;95.16
66887;BME280;53798;51.680;5.976;2022-09-28T07:12:39;99539.47;;;8.65;94.56
66887;BME280;53798;51.680;5.976;2022-09-28T07:15:23;99548.13;;;8.67;94.65
66887;BME280;53798;51.680;5.976;2022-09-28T07:17:56;99542.56;;;8.75;94.50
66887;BME280;53798;51.680;5.976;2022-09-28T07:20:29;99546.38;;;8.88;94.67
66887;BME280;53798;51.680;5.976;2022-09-28T07:23:17;99545.53;;;9.07;94.49
66887;BME280;53798;51.680;5.976;2022-09-28T07:26:04;99548.34;;;9.23;92.35
66887;BME280;53798;51.680;5.976;2022-09-28T07:29:01;99550.63;;;9.30;91.64
66887;BME280;53798;51.680;5.976;2022-09-28T07:31:53;99544.16;;;9.38;91.33
66887;BME280;53798;51.680;5.976;2022-09-28T07:34:40;99560.50;;;9.44;90.51
66887;BME280;53798;51.680;5.976;2022-09-28T07:37:15;99553.25;;;9.50;90.27
66887;BME280;53798;51.680;5.976;2022-09-28T07:39:45;99554.81;;;9.54;89.17
66887;BME280;53798;51.680;5.976;2022-09-28T07:42:33;99567.47;;;9.64;89.00
66887;BME280;53798;51.680;5.976;2022-09-28T07:45:02;99568.13;;;9.70;89.58
66887;BME280;53798;51.680;5.976;2022-09-28T07:47:31;99575.63;;;9.77;88.92
66887;BME280;53798;51.680;5.976;2022-09-28T07:50:16;99573.72;;;9.81;87.87
66887;BME280;53798;51.680;5.976;2022-09-28T07:53:04;99576.19;;;9.84;87.94
66887;BME280;53798;51.680;5.976;2022-09-28T07:55:51;99579.47;;;9.89;87.83
66887;BME280;53798;51.680;5.976;2022-09-28T07:58:34;99577.47;;;9.94;87.95
66887;BME280;53798;51.680;5.976;2022-09-28T08:01:37;99583.22;;;10.03;88.08
66887;BME280;53798;51.680;5.976;2022-09-28T08:04:07;99593.47;;;10.09;87.34
66887;BME280;53798;51.680;5.976;2022-09-28T08:06:35;99589.91;;;10.10;87.46
66887;BME280;53798;51.680;5.976;2022-09-28T08:09:04;99587.38;;;10.26;86.82
66887;BME280;53798;51.680;5.976;2022-09-28T08:12:03;99588.69;;;10.35;86.02
66887;BME280;53798;51.680;5.976;2022-09-28T08:14:45;99598.91;;;10.43;85.80
66887;BME280;53798;51.680;5.976;2022-09-28T08:17:27;99599.69;;;10.45;84.85
66887;BME280;53798;51.680;5.976;2022-09-28T08:19:58;99601.44;;;10.44;85.20
66887;BME280;53798;51.680;5.976;2022-09-28T08:22:43;99598.41;;;10.34;84.66
66887;BME280;53798;51.680;5.976;2022-09-28T08:25:12;99604.72;;;10.30;85.15
66887;BME280;53798;51.680;5.976;2022-09-28T08:27:39;99611.47;;;10.37;85.72
66887;BME280;53798;51.680;5.976;2022-09-28T08:30:07;99607.22;;;10.52;85.96
66887;BME280;53798;51.680;5.976;2022-09-28T08:33:00;99608.28;;;10.66;85.45
66887;BME280;53798;51.680;5.976;2022-09-28T08:35:43;99611.63;;;10.87;83.87
66887;BME280;53798;51.680;5.976;2022-09-28T08:38:16;99613.66;;;11.15;83.32
66887;BME280;53798;51.680;5.976;2022-09-28T08:44:16;99613.47;;;11.36;80.02
66887;BME280;53798;51.680;5.976;2022-09-28T08:47:12;99612.94;;;11.29;80.19
66887;BME280;53798;51.680;5.976;2022-09-28T08:50:29;99616.25;;;11.17;81.21
66887;BME280;53798;51.680;5.976;2022-09-28T08:53:34;99612.34;;;11.24;81.04
66887;BME280;53798;51.680;5.976;2022-09-28T08:56:38;99621.75;;;11.46;79.53
66887;BME280;53798;51.680;5.976;2022-09-28T08:59:18;99621.84;;;11.44;80.12
66887;BME280;53798;51.680;5.976;2022-09-28T09:01:58;99615.16;;;11.55;79.64
66887;BME280;53798;51.680;5.976;2022-09-28T09:04:31;99619.41;;;11.57;79.73
66887;BME280;53798;51.680;5.976;2022-09-28T09:16:57;99624.13;;;12.63;78.38
66887;BME280;53798;51.680;5.976;2022-09-28T09:20:30;99627.16;;;12.87;79.37
66887;BME280;53798;51.680;5.976;2022-09-28T09:23:18;99634.13;;;12.88;75.63
66887;BME280;53798;51.680;5.976;2022-09-28T09:26:20;99635.81;;;12.74;75.68
66887;BME280;53798;51.680;5.976;2022-09-28T09:32:08;99641.97;;;12.59;75.73
66887;BME280;53798;51.680;5.976;2022-09-28T09:45:13;99649.50;;;12.51;75.76
66887;BME280;53798;51.680;5.976;2022-09-28T09:48:09;99662.16;;;12.46;76.05
66887;BME280;53798;51.680;5.976;2022-09-28T09:50:49;99652.00;;;12.68;75.39
66887;BME280;53798;51.680;5.976;2022-09-28T09:53:52;99644.47;;;13.07;75.76
66887;BME280;53798;51.680;5.976;2022-09-28T09:56:40;99645.72;;;13.16;75.30
66887;BME280;53798;51.680;5.976;2022-09-28T09:59:21;99649.84;;;13.50;72.96
66887;BME280;53798;51.680;5.976;2022-09-28T10:02:23;99646.25;;;13.80;72.65
66887;BME280;53798;51.680;5.976;2022-09-28T10:05:20;99646.84;;;14.13;72.99
66887;BME280;53798;51.680;5.976;2022-09-28T10:07:59;99638.59;;;14.45;72.65
66887;BME280;53798;51.680;5.976;2022-09-28T10:10:35;99639.19;;;14.63;69.51
66887;BME280;53798;51.680;5.976;2022-09-28T10:13:10;99635.97;;;14.31;69.57
66887;BME280;53798;51.680;5.976;2022-09-28T10:15:39;99648.38;;;14.03;69.85
66887;BME280;53798;51.680;5.976;2022-09-28T10:18:19;99645.56;;;13.91;70.12
66887;BME280;53798;51.680;5.976;2022-09-28T10:21:11;99643.66;;;13.93;70.43
66887;BME280;53798;51.680;5.976;2022-09-28T10:24:29;99633.34;;;14.03;69.65
66887;BME280;53798;51.680;5.976;2022-09-28T10:27:12;99642.25;;;13.88;69.89
66887;BME280;53798;51.680;5.976;2022-09-28T10:29:50;99650.13;;;13.75;70.55
66887;BME280;53798;51.680;5.976;2022-09-28T10:32:25;99653.13;;;13.69;68.76
66887;BME280;53798;51.680;5.976;2022-09-28T10:37:52;99649.38;;;13.44;69.84
66887;BME280;53798;51.680;5.976;2022-09-28T10:43:21;99647.72;;;13.27;68.45
66887;BME280;53798;51.680;5.976;2022-09-28T10:48:51;99639.72;;;13.43;69.17
66887;BME280;53798;51.680;5.976;2022-09-28T10:51:48;99644.84;;;13.46;70.43
66887;BME280;53798;51.680;5.976;2022-09-28T10:54:27;99661.38;;;13.49;69.65
66887;BME280;53798;51.680;5.976;2022-09-28T10:56:59;99650.03;;;13.47;69.97
66887;BME280;53798;51.680;5.976;2022-09-28T10:59:44;99644.84;;;13.46;70.06
66887;BME280;53798;51.680;5.976;2022-09-28T11:02:41;99649.38;;;13.44;69.79
66887;BME280;53798;51.680;5.976;2022-09-28T11:05:23;99651.16;;;13.43;69.25
66887;BME280;53798;51.680;5.976;2022-09-28T11:08:05;99649.66;;;13.39;69.53
66887;BME280;53798;51.680;5.976;2022-09-28T11:10:43;99653.91;;;13.42;68.63
66887;BME280;53798;51.680;5.976;2022-09-28T11:13:12;99649.84;;;13.50;68.71
66887;BME280;53798;51.680;5.976;2022-09-28T11:15:44;99651.25;;;13.71;67.92
66887;BME280;53798;51.680;5.976;2022-09-28T11:18:26;99631.94;;;13.83;69.39
66887;BME280;53798;51.680;5.976;2022-09-28T11:21:17;99644.78;;;14.04;69.50
66887;BME280;53798;51.680;5.976;2022-09-28T11:26:47;99646.19;;;14.09;69.21
66887;BME280;53798;51.680;5.976;2022-09-28T11:29:37;99636.81;;;14.04;68.77
66887;BME280;53798;51.680;5.976;2022-09-28T11:32:20;99640.19;;;13.93;68.81
66887;BME280;53798;51.680;5.976;2022-09-28T11:35:21;99645.31;;;13.81;68.70
66887;BME280;53798;51.680;5.976;2022-09-28T11:38:06;99647.25;;;13.92;67.70
66887;BME280;53798;51.680;5.976;2022-09-28T11:44:38;99635.09;;;14.44;68.08
66887;BME280;53798;51.680;5.976;2022-09-28T11:50:43;99636.94;;;14.97;66.73
66887;BME280;53798;51.680;5.976;2022-09-28T11:53:20;99636.34;;;15.19;66.13
66887;BME280;53798;51.680;5.976;2022-09-28T11:56:05;99631.03;;;15.32;63.18
66887;BME280;53798;51.680;5.976;2022-09-28T11:58:53;99632.72;;;15.33;64.81
66887;BME280;53798;51.680;5.976;2022-09-28T12:01:47;99632.66;;;15.72;62.12
66887;BME280;53798;51.680;5.976;2022-09-28T12:04:41;99635.03;;;15.90;61.27
66887;BME280;53798;51.680;5.976;2022-09-28T12:07:24;99634.34;;;15.99;62.77
66887;BME280;53798;51.680;5.976;2022-09-28T12:10:18;99634.38;;;15.73;62.54
66887;BME280;53798;51.680;5.976;2022-09-28T12:13:03;99630.69;;;15.50;63.48
66887;BME280;53798;51.680;5.976;2022-09-28T12:19:28;99634.28;;;14.84;64.20
66887;BME280;53798;51.680;5.976;2022-09-28T12:22:18;99633.88;;;14.63;64.79
66887;BME280;53798;51.680;5.976;2022-09-28T12:24:51;99633.41;;;14.43;63.88
66887;BME280;53798;51.680;5.976;2022-09-28T12:27:26;99633.44;;;14.29;65.00
66887;BME280;53798;51.680;5.976;2022-09-28T12:30:19;99626.63;;;14.52;64.94
66887;BME280;53798;51.680;5.976;2022-09-28T12:33:04;99638.31;;;14.90;65.41
66887;BME280;53798;51.680;5.976;2022-09-28T12:36:08;99634.75;;;15.30;64.52
66887;BME280;53798;51.680;5.976;2022-09-28T12:42:15;99625.69;;;15.06;63.08
66887;BME280;53798;51.680;5.976;2022-09-28T12:48:30;99625.59;;;14.95;64.52
66887;BME280;53798;51.680;5.976;2022-09-28T12:51:15;99626.44;;;15.21;63.44
66887;BME280;53798;51.680;5.976;2022-09-28T12:57:05;99614.47;;;15.16;64.77
66887;BME280;53798;51.680;5.976;2022-09-28T13:03:07;99622.38;;;15.67;63.19
66887;BME280;53798;51.680;5.976;2022-09-28T13:09:18;99618.50;;;15.97;61.03
66887;BME280;53798;51.680;5.976;2022-09-28T13:17:39;99630.81;;;15.48;63.78
66887;BME280;53798;51.680;5.976;2022-09-28T13:20:27;99622.63;;;15.38;64.19
66887;BME280;53798;51.680;5.976;2022-09-28T13:23:41;99627.09;;;15.25;64.59
66887;BME280;53798;51.680;5.976;2022-09-28T13:26:23;99629.00;;;15.10;64.83
66887;BME280;53798;51.680;5.976;2022-09-28T13:28:58;99627.19;;;14.98;65.48
66887;BME280;53798;51.680;5.976;2022-09-28T13:31:31;99624.22;;;14.89;66.37
66887;BME280;53798;51.680;5.976;2022-09-28T13:34:09;99628.31;;;14.81;67.02
66887;BME280;53798;51.680;5.976;2022-09-28T13:36:43;99632.88;;;14.79;67.47
66887;BME280;53798;51.680;5.976;2022-09-28T13:39:37;99633.75;;;14.79;66.76
66887;BME280;53798;51.680;5.976;2022-09-28T13:51:08;99632.78;;;14.25;65.65
66887;BME280;53798;51.680;5.976;2022-09-28T13:54:01;99632.59;;;14.01;66.60
66887;BME280;53798;51.680;5.976;2022-09-28T13:57:07;99642.72;;;13.80;68.18
66887;BME280;53798;51.680;5.976;2022-09-28T14:00:02;99648.41;;;13.59;69.04
66887;BME280;53798;51.680;5.976;2022-09-28T14:02:43;99644.91;;;13.44;70.13
66887;BME280;53798;51.680;5.976;2022-09-28T14:10:56;99660.34;;;13.07;72.26
66887;BME280;53798;51.680;5.976;2022-09-28T14:16:32;99665.13;;;12.86;72.81
66887;BME280;53798;51.680;5.976;2022-09-28T14:19:18;99656.97;;;12.74;72.03
66887;BME280;53798;51.680;5.976;2022-09-28T14:22:12;99668.25;;;12.62;71.57
66887;BME280;53798;51.680;5.976;2022-09-28T14:30:52;99669.66;;;12.05;70.45
66887;BME280;53798;51.680;5.976;2022-09-28T14:33:28;99678.22;;;11.93;70.78
66887;BME280;53798;51.680;5.976;2022-09-28T14:36:03;99673.94;;;11.74;71.28
66887;BME280;53798;51.680;5.976;2022-09-28T14:38:58;99679.19;;;11.58;71.54
66887;BME280;53798;51.680;5.976;2022-09-28T14:41:44;99673.91;;;11.41;71.77
66887;BME280;53798;51.680;5.976;2022-09-28T14:44:13;99670.25;;;11.27;72.25
66887;BME280;53798;51.680;5.976;2022-09-28T14:46:45;99671.66;;;11.17;72.59
66887;BME280;53798;51.680;5.976;2022-09-28T14:54:23;99689.47;;;10.94;74.00
66887;BME280;53798;51.680;5.976;2022-09-28T15:01:59;99724.19;;;10.67;75.51
66887;BME280;53798;51.680;5.976;2022-09-28T15:04:38;99727.00;;;10.45;77.28
66887;BME280;53798;51.680;5.976;2022-09-28T15:07:18;99732.88;;;10.31;79.44
66887;BME280;53798;51.680;5.976;2022-09-28T15:09:52;99735.31;;;10.17;80.21
66887;BME280;53798;51.680;5.976;2022-09-28T15:12:28;99746.34;;;10.06;81.07
66887;BME280;53798;51.680;5.976;2022-09-28T15:15:05;99742.50;;;9.94;81.67
66887;BME280;53798;51.680;5.976;2022-09-28T15:17:47;99748.16;;;9.85;81.78
66887;BME280;53798;51.680;5.976;2022-09-28T15:20:29;99744.28;;;9.73;81.28
66887;BME280;53798;51.680;5.976;2022-09-28T15:23:03;99753.50;;;9.62;82.12
66887;BME280;53798;51.680;5.976;2022-09-28T15:25:31;99755.56;;;9.56;82.76
66887;BME280;53798;51.680;5.976;2022-09-28T15:28:11;99761.97;;;9.50;83.44
66887;BME280;53798;51.680;5.976;2022-09-28T15:30:46;99763.06;;;9.44;84.49
66887;BME280;53798;51.680;5.976;2022-09-28T15:33:25;99755.44;;;9.38;84.71
66887;BME280;53798;51.680;5.976;2022-09-28T15:36:28;99760.75;;;9.37;85.32
66887;BME280;53798;51.680;5.976;2022-09-28T15:39:11;99769.66;;;9.34;85.94
66887;BME280;53798;51.680;5.976;2022-09-28T15:41:42;99766.34;;;9.29;86.48
66887;BME280;53798;51.680;5.976;2022-09-28T15:46:40;99766.66;;;9.21;87.58
66887;BME280;53798;51.680;5.976;2022-09-28T15:49:36;99765.16;;;9.15;88.09
66887;BME280;53798;51.680;5.976;2022-09-28T15:52:21;99762.69;;;9.11;88.70
66887;BME280;53798;51.680;5.976;2022-09-28T15:55:33;99760.13;;;9.09;89.52
66887;BME280;53798;51.680;5.976;2022-09-28T15:58:04;99755.06;;;9.05;89.84
66887;BME280;53798;51.680;5.976;2022-09-28T16:00:49;99751.41;;;9.09;90.61
66887;BME280;53798;51.680;5.976;2022-09-28T16:03:37;99744.47;;;9.06;90.94
66887;BME280;53798;51.680;5.976;2022-09-28T16:06:07;99750.06;;;8.98;91.66
66887;BME280;53798;51.680;5.976;2022-09-28T16:08:41;99757.06;;;8.99;92.31
66887;BME280;53798;51.680;5.976;2022-09-28T16:11:29;99760.34;;;9.05;92.46
66887;BME280;53798;51.680;5.976;2022-09-28T16:14:12;99757.50;;;9.09;92.95
66887;BME280;53798;51.680;5.976;2022-09-28T16:16:49;99755.41;;;9.17;93.18
66887;BME280;53798;51.680;5.976;2022-09-28T16:22:19;99744.31;;;9.31;94.05
66887;BME280;53798;51.680;5.976;2022-09-28T16:24:58;99746.75;;;9.36;94.22
66887;BME280;53798;51.680;5.976;2022-09-28T16:27:39;99748.94;;;9.47;94.52
66887;BME280;53798;51.680;5.976;2022-09-28T16:30:57;99750.31;;;9.56;94.66
66887;BME280;53798;51.680;5.976;2022-09-28T16:33:38;99748.03;;;9.67;94.75